sensor_id;sensor_type;location;lat;lon;timestamp;pressure;altitude;pressure_sealevel;temperature
22269;BMP280;11303;50.772;19.670;2023-05-10T11:32:09;99179.69;;;26.76
22269;BMP280;11303;50.772;19.670;2023-05-10T11:42:16;-4321.66;;;21.99
22269;BMP280;11303;50.772;19.670;2023-05-10T11:44:18;-4337.00;;;22.87
22269;BMP280;11303;50.772;19.670;2023-05-10T11:46:21;-4346.84;;;23.42
22269;BMP280;11303;50.772;19.670;2023-05-10T11:48:23;-4349.28;;;23.56
22269;BMP280;11303;50.772;19.670;2023-05-10T11:50:25;-4352.09;;;23.72
22269;BMP280;11303;50.772;19.670;2023-05-10T11:52:35;97878.66;;;27.21
22269;BMP280;11303;50.772;19.670;2023-05-10T12:29:17;99115.84;;;18.98
22269;BMP280;11303;50.772;19.670;2023-05-10T12:31:18;99126.34;;;18.46
22269;BMP280;11303;50.772;19.670;2023-05-10T12:33:20;99128.28;;;18.38
22269;BMP280;11303;50.772;19.670;2023-05-10T12:35:22;99110.31;;;18.18
22269;BMP280;11303;50.772;19.670;2023-05-10T12:37:27;99112.53;;;18.31
22269;BMP280;11303;50.772;19.670;2023-05-10T12:39:40;99122.59;;;18.43
22269;BMP280;11303;50.772;19.670;2023-05-10T12:41:42;99117.66;;;18.52
22269;BMP280;11303;50.772;19.670;2023-05-10T12:43:44;99122.59;;;18.47
22269;BMP280;11303;50.772;19.670;2023-05-10T12:45:46;99126.06;;;18.36
22269;BMP280;11303;50.772;19.670;2023-05-10T12:47:50;99119.97;;;18.47
22269;BMP280;11303;50.772;19.670;2023-05-10T12:49:51;99117.19;;;19.13
22269;BMP280;11303;50.772;19.670;2023-05-10T12:51:53;99112.44;;;20.04
22269;BMP280;11303;50.772;19.670;2023-05-10T12:53:55;99105.22;;;19.05
22269;BMP280;11303;50.772;19.670;2023-05-10T12:55:57;99097.16;;;19.27
22269;BMP280;11303;50.772;19.670;2023-05-10T12:57:58;99107.16;;;18.49
22269;BMP280;11303;50.772;19.670;2023-05-10T13:00:00;99098.16;;;19.36
22269;BMP280;11303;50.772;19.670;2023-05-10T13:02:02;99100.13;;;20.48
22269;BMP280;11303;50.772;19.670;2023-05-10T13:04:03;99099.72;;;19.95
22269;BMP280;11303;50.772;19.670;2023-05-10T13:06:05;99076.78;;;18.89
22269;BMP280;11303;50.772;19.670;2023-05-10T13:08:07;99095.50;;;18.50
22269;BMP280;11303;50.772;19.670;2023-05-10T13:10:09;99097.25;;;18.04
22269;BMP280;11303;50.772;19.670;2023-05-10T13:12:11;99096.91;;;17.99
22269;BMP280;11303;50.772;19.670;2023-05-10T13:14:13;99089.06;;;17.81
22269;BMP280;11303;50.772;19.670;2023-05-10T13:16:15;99090.19;;;17.90
22269;BMP280;11303;50.772;19.670;2023-05-10T13:18:17;99080.50;;;17.62
22269;BMP280;11303;50.772;19.670;2023-05-10T13:20:19;99099.72;;;17.34
22269;BMP280;11303;50.772;19.670;2023-05-10T13:22:21;99087.69;;;17.40
22269;BMP280;11303;50.772;19.670;2023-05-10T13:24:39;99091.81;;;17.38
22269;BMP280;11303;50.772;19.670;2023-05-10T13:26:41;99091.03;;;17.55
22269;BMP280;11303;50.772;19.670;2023-05-10T13:28:43;99086.16;;;17.57
22269;BMP280;11303;50.772;19.670;2023-05-10T13:30:44;99078.59;;;17.73
22269;BMP280;11303;50.772;19.670;2023-05-10T13:32:46;99081.19;;;17.84
22269;BMP280;11303;50.772;19.670;2023-05-10T13:34:48;99071.06;;;17.75
22269;BMP280;11303;50.772;19.670;2023-05-10T13:36:49;99063.13;;;17.86
22269;BMP280;11303;50.772;19.670;2023-05-10T13:38:51;99079.28;;;17.85
22269;BMP280;11303;50.772;19.670;2023-05-10T13:40:53;99087.59;;;17.72
22269;BMP280;11303;50.772;19.670;2023-05-10T13:42:54;99065.13;;;17.57
22269;BMP280;11303;50.772;19.670;2023-05-10T13:44:56;99075.59;;;17.61
22269;BMP280;11303;50.772;19.670;2023-05-10T13:46:57;99063.97;;;17.54
22269;BMP280;11303;50.772;19.670;2023-05-10T13:48:59;99068.88;;;17.63
22269;BMP280;11303;50.772;19.670;2023-05-10T13:51:01;99059.41;;;17.80
22269;BMP280;11303;50.772;19.670;2023-05-10T13:53:02;99058.31;;;17.67
22269;BMP280;11303;50.772;19.670;2023-05-10T13:55:04;99071.13;;;17.61
22269;BMP280;11303;50.772;19.670;2023-05-10T13:57:06;99058.34;;;17.63
22269;BMP280;11303;50.772;19.670;2023-05-10T13:59:08;99056.06;;;17.65
22269;BMP280;11303;50.772;19.670;2023-05-10T14:01:09;99044.81;;;17.65
22269;BMP280;11303;50.772;19.670;2023-05-10T14:03:11;99047.81;;;17.67
22269;BMP280;11303;50.772;19.670;2023-05-10T14:05:13;99045.91;;;17.71
22269;BMP280;11303;50.772;19.670;2023-05-10T14:07:15;99048.50;;;17.74
22269;BMP280;11303;50.772;19.670;2023-05-10T14:09:16;99056.03;;;17.83
22269;BMP280;11303;50.772;19.670;2023-05-10T14:11:18;99046.28;;;17.73
22269;BMP280;11303;50.772;19.670;2023-05-10T14:13:20;99047.09;;;17.63
22269;BMP280;11303;50.772;19.670;2023-05-10T14:15:22;99054.25;;;17.55
22269;BMP280;11303;50.772;19.670;2023-05-10T14:17:23;99041.16;;;17.44
22269;BMP280;11303;50.772;19.670;2023-05-10T14:19:25;99044.88;;;17.47
22269;BMP280;11303;50.772;19.670;2023-05-10T14:21:28;99048.59;;;17.57
22269;BMP280;11303;50.772;19.670;2023-05-10T14:23:32;99042.94;;;17.54
22269;BMP280;11303;50.772;19.670;2023-05-10T14:25:34;99049.34;;;17.57
22269;BMP280;11303;50.772;19.670;2023-05-10T14:27:36;99041.88;;;17.48
22269;BMP280;11303;50.772;19.670;2023-05-10T14:29:37;99033.25;;;17.44
22269;BMP280;11303;50.772;19.670;2023-05-10T14:31:40;99033.63;;;17.35
22269;BMP280;11303;50.772;19.670;2023-05-10T14:33:42;99038.53;;;17.19
22269;BMP280;11303;50.772;19.670;2023-05-10T14:35:44;99044.19;;;17.18
22269;BMP280;11303;50.772;19.670;2023-05-10T14:37:46;99035.53;;;17.21
22269;BMP280;11303;50.772;19.670;2023-05-10T14:39:48;99032.16;;;17.24
22269;BMP280;11303;50.772;19.670;2023-05-10T14:41:49;99036.25;;;17.39
22269;BMP280;11303;50.772;19.670;2023-05-10T14:43:52;99042.22;;;17.47
22269;BMP280;11303;50.772;19.670;2023-05-10T14:45:54;99040.75;;;17.46
22269;BMP280;11303;50.772;19.670;2023-05-10T14:47:56;99031.72;;;17.47
22269;BMP280;11303;50.772;19.670;2023-05-10T14:49:58;99037.75;;;17.47
22269;BMP280;11303;50.772;19.670;2023-05-10T14:52:00;99039.25;;;17.48
22269;BMP280;11303;50.772;19.670;2023-05-10T14:54:02;99041.91;;;17.41
22269;BMP280;11303;50.772;19.670;2023-05-10T14:56:04;99026.88;;;17.34
22269;BMP280;11303;50.772;19.670;2023-05-10T14:58:06;99034.03;;;17.34
22269;BMP280;11303;50.772;19.670;2023-05-10T15:00:08;99040.00;;;17.34
22269;BMP280;11303;50.772;19.670;2023-05-10T15:02:10;99042.66;;;17.20
22269;BMP280;11303;50.772;19.670;2023-05-10T15:04:13;99038.94;;;17.18
22269;BMP280;11303;50.772;19.670;2023-05-10T15:06:15;99043.81;;;17.23
22269;BMP280;11303;50.772;19.670;2023-05-10T15:08:17;99037.41;;;17.24
22269;BMP280;11303;50.772;19.670;2023-05-10T15:10:19;99041.16;;;17.26
22269;BMP280;11303;50.772;19.670;2023-05-10T15:12:21;99034.78;;;17.31
22269;BMP280;11303;50.772;19.670;2023-05-10T15:14:23;99039.66;;;17.32
22269;BMP280;11303;50.772;19.670;2023-05-10T15:16:24;99026.91;;;17.27
22269;BMP280;11303;50.772;19.670;2023-05-10T15:18:26;99042.69;;;17.27
22269;BMP280;11303;50.772;19.670;2023-05-10T15:20:28;99031.81;;;17.18
22269;BMP280;11303;50.772;19.670;2023-05-10T15:22:30;99031.44;;;17.09
22269;BMP280;11303;50.772;19.670;2023-05-10T15:24:34;99033.31;;;17.08
22269;BMP280;11303;50.772;19.670;2023-05-10T15:26:36;99018.69;;;17.07
22269;BMP280;11303;50.772;19.670;2023-05-10T15:28:38;99035.19;;;17.08
22269;BMP280;11303;50.772;19.670;2023-05-10T15:30:39;99032.56;;;17.08
22269;BMP280;11303;50.772;19.670;2023-05-10T15:32:41;99027.72;;;17.03
22269;BMP280;11303;50.772;19.670;2023-05-10T15:34:44;99023.94;;;17.00
22269;BMP280;11303;50.772;19.670;2023-05-10T15:36:45;99019.47;;;17.01
22269;BMP280;11303;50.772;19.670;2023-05-10T15:38:47;99031.09;;;17.07
22269;BMP280;11303;50.772;19.670;2023-05-10T15:40:49;99036.69;;;17.02
22269;BMP280;11303;50.772;19.670;2023-05-10T15:42:50;99026.97;;;16.91
22269;BMP280;11303;50.772;19.670;2023-05-10T15:44:52;99038.56;;;16.94
22269;BMP280;11303;50.772;19.670;2023-05-10T15:46:53;99031.47;;;16.95
22269;BMP280;11303;50.772;19.670;2023-05-10T15:48:58;99018.69;;;16.89
22269;BMP280;11303;50.772;19.670;2023-05-10T15:51:00;99035.19;;;16.93
22269;BMP280;11303;50.772;19.670;2023-05-10T15:53:02;99019.47;;;16.86
22269;BMP280;11303;50.772;19.670;2023-05-10T15:55:04;99018.34;;;16.84
22269;BMP280;11303;50.772;19.670;2023-05-10T15:57:13;99023.97;;;16.75
22269;BMP280;11303;50.772;19.670;2023-05-10T15:59:14;99005.59;;;16.82
22269;BMP280;11303;50.772;19.670;2023-05-10T16:01:16;99012.72;;;16.78
22269;BMP280;11303;50.772;19.670;2023-05-10T16:03:18;99022.44;;;16.74
22269;BMP280;11303;50.772;19.670;2023-05-10T16:05:19;99013.47;;;16.71
22269;BMP280;11303;50.772;19.670;2023-05-10T16:07:21;99023.19;;;16.67
22269;BMP280;11303;50.772;19.670;2023-05-10T16:09:23;99026.22;;;16.62
22269;BMP280;11303;50.772;19.670;2023-05-10T16:11:24;99029.59;;;16.59
22269;BMP280;11303;50.772;19.670;2023-05-10T16:13:27;99020.56;;;16.57
22269;BMP280;11303;50.772;19.670;2023-05-10T16:15:29;99022.09;;;16.58
22269;BMP280;11303;50.772;19.670;2023-05-10T16:17:30;99029.22;;;16.64
22269;BMP280;11303;50.772;19.670;2023-05-10T16:19:32;99022.84;;;16.69
22269;BMP280;11303;50.772;19.670;2023-05-10T16:21:34;99027.72;;;16.67
22269;BMP280;11303;50.772;19.670;2023-05-10T16:23:36;99029.97;;;16.65
22269;BMP280;11303;50.772;19.670;2023-05-10T16:25:38;99027.72;;;16.60
22269;BMP280;11303;50.772;19.670;2023-05-10T16:27:39;99028.44;;;16.57
22269;BMP280;11303;50.772;19.670;2023-05-10T16:29:41;99032.94;;;16.52
22269;BMP280;11303;50.772;19.670;2023-05-10T16:31:42;99028.06;;;16.47
22269;BMP280;11303;50.772;19.670;2023-05-10T16:33:44;99039.69;;;16.43
22269;BMP280;11303;50.772;19.670;2023-05-10T16:35:46;99033.66;;;16.39
22269;BMP280;11303;50.772;19.670;2023-05-10T16:37:48;99031.78;;;16.32
22269;BMP280;11303;50.772;19.670;2023-05-10T16:39:50;99034.03;;;16.30
22269;BMP280;11303;50.772;19.670;2023-05-10T16:41:52;99039.25;;;16.26
22269;BMP280;11303;50.772;19.670;2023-05-10T16:43:53;99045.97;;;16.20
22269;BMP280;11303;50.772;19.670;2023-05-10T16:45:55;99040.75;;;16.17
22269;BMP280;11303;50.772;19.670;2023-05-10T16:47:57;99041.09;;;16.15
22269;BMP280;11303;50.772;19.670;2023-05-10T16:49:59;99039.25;;;16.12
22269;BMP280;11303;50.772;19.670;2023-05-10T16:52:02;99043.69;;;16.08
22269;BMP280;11303;50.772;19.670;2023-05-10T16:54:04;99037.00;;;16.07
22269;BMP280;11303;50.772;19.670;2023-05-10T16:56:06;99042.53;;;16.02
22269;BMP280;11303;50.772;19.670;2023-05-10T16:58:07;99038.81;;;15.99
22269;BMP280;11303;50.772;19.670;2023-05-10T17:00:10;99038.78;;;15.96
22269;BMP280;11303;50.772;19.670;2023-05-10T17:02:13;99051.53;;;15.90
22269;BMP280;11303;50.772;19.670;2023-05-10T17:04:15;99043.22;;;15.81
22269;BMP280;11303;50.772;19.670;2023-05-10T17:06:16;99052.19;;;15.76
22269;BMP280;11303;50.772;19.670;2023-05-10T17:08:18;99044.69;;;15.71
22269;BMP280;11303;50.772;19.670;2023-05-10T17:10:19;99052.53;;;15.67
22269;BMP280;11303;50.772;19.670;2023-05-10T17:12:21;99053.25;;;15.64
22269;BMP280;11303;50.772;19.670;2023-05-10T17:14:23;99056.59;;;15.58
22269;BMP280;11303;50.772;19.670;2023-05-10T17:16:24;99067.81;;;15.55
22269;BMP280;11303;50.772;19.670;2023-05-10T17:18:26;99058.03;;;15.48
22269;BMP280;11303;50.772;19.670;2023-05-10T17:20:28;99068.84;;;15.43
22269;BMP280;11303;50.772;19.670;2023-05-10T17:22:29;99065.06;;;15.37
22269;BMP280;11303;50.772;19.670;2023-05-10T17:24:31;99063.16;;;15.30
22269;BMP280;11303;50.772;19.670;2023-05-10T17:26:33;99064.59;;;15.24
22269;BMP280;11303;50.772;19.670;2023-05-10T17:28:35;99075.00;;;15.17
22269;BMP280;11303;50.772;19.670;2023-05-10T17:30:36;99069.75;;;15.13
22269;BMP280;11303;50.772;19.670;2023-05-10T17:32:38;99071.19;;;15.03
22269;BMP280;11303;50.772;19.670;2023-05-10T17:34:39;99066.28;;;14.98
22269;BMP280;11303;50.772;19.670;2023-05-10T17:36:41;99075.91;;;14.91
22269;BMP280;11303;50.772;19.670;2023-05-10T17:38:43;99064.63;;;14.83
22269;BMP280;11303;50.772;19.670;2023-05-10T17:40:44;99072.06;;;14.77
22269;BMP280;11303;50.772;19.670;2023-05-10T17:42:46;99074.25;;;14.68
22269;BMP280;11303;50.772;19.670;2023-05-10T17:44:48;99065.13;;;14.58
22269;BMP280;11303;50.772;19.670;2023-05-10T17:46:49;99065.47;;;14.53
22269;BMP280;11303;50.772;19.670;2023-05-10T17:48:51;99074.38;;;14.48
22269;BMP280;11303;50.772;19.670;2023-05-10T17:50:53;99066.84;;;14.40
22269;BMP280;11303;50.772;19.670;2023-05-10T17:52:54;99072.00;;;14.33
22269;BMP280;11303;50.772;19.670;2023-05-10T17:54:56;99076.03;;;14.26
22269;BMP280;11303;50.772;19.670;2023-05-10T17:56:57;99076.28;;;14.18
22269;BMP280;11303;50.772;19.670;2023-05-10T17:59:01;99080.66;;;14.10
22269;BMP280;11303;50.772;19.670;2023-05-10T18:01:04;99080.88;;;13.98
22269;BMP280;11303;50.772;19.670;2023-05-10T18:03:06;99098.31;;;13.90
22269;BMP280;11303;50.772;19.670;2023-05-10T18:05:08;99090.38;;;13.83
22269;BMP280;11303;50.772;19.670;2023-05-10T18:07:11;99093.66;;;13.76
22269;BMP280;11303;50.772;19.670;2023-05-10T18:09:13;99096.53;;;13.68
22269;BMP280;11303;50.772;19.670;2023-05-10T18:11:16;99097.84;;;13.58
22269;BMP280;11303;50.772;19.670;2023-05-10T18:13:18;99108.91;;;13.48
22269;BMP280;11303;50.772;19.670;2023-05-10T18:15:19;99105.84;;;13.42
22269;BMP280;11303;50.772;19.670;2023-05-10T18:17:21;99106.75;;;13.30
22269;BMP280;11303;50.772;19.670;2023-05-10T18:19:22;99112.13;;;13.18
22269;BMP280;11303;50.772;19.670;2023-05-10T18:21:27;99118.34;;;13.10
22269;BMP280;11303;50.772;19.670;2023-05-10T18:23:29;99121.78;;;12.94
22269;BMP280;11303;50.772;19.670;2023-05-10T18:25:30;99124.56;;;12.82
22269;BMP280;11303;50.772;19.670;2023-05-10T18:27:32;99123.66;;;12.74
22269;BMP280;11303;50.772;19.670;2023-05-10T18:29:34;99114.47;;;12.61
22269;BMP280;11303;50.772;19.670;2023-05-10T18:31:37;99120.97;;;12.51
22269;BMP280;11303;50.772;19.670;2023-05-10T18:33:38;99129.41;;;12.44
22269;BMP280;11303;50.772;19.670;2023-05-10T18:35:40;99128.56;;;12.40
22269;BMP280;11303;50.772;19.670;2023-05-10T18:37:42;99122.25;;;12.41
22269;BMP280;11303;50.772;19.670;2023-05-10T18:39:43;99119.25;;;12.39
22269;BMP280;11303;50.772;19.670;2023-05-10T18:41:45;99136.66;;;12.35
22269;BMP280;11303;50.772;19.670;2023-05-10T18:43:47;99138.50;;;12.35
22269;BMP280;11303;50.772;19.670;2023-05-10T18:45:48;99144.41;;;12.32
22269;BMP280;11303;50.772;19.670;2023-05-10T18:47:51;99145.00;;;12.25
22269;BMP280;11303;50.772;19.670;2023-05-10T18:49:53;99148.72;;;12.24
22269;BMP280;11303;50.772;19.670;2023-05-10T18:51:55;99145.63;;;12.18
22269;BMP280;11303;50.772;19.670;2023-05-10T18:53:57;99142.09;;;12.11
22269;BMP280;11303;50.772;19.670;2023-05-10T18:55:58;99156.13;;;12.06
22269;BMP280;11303;50.772;19.670;2023-05-10T18:58:00;99157.97;;;12.05
22269;BMP280;11303;50.772;19.670;2023-05-10T19:00:02;99164.53;;;11.99
22269;BMP280;11303;50.772;19.670;2023-05-10T19:02:04;99158.31;;;11.88
22269;BMP280;11303;50.772;19.670;2023-05-10T19:04:06;99165.66;;;11.82
22269;BMP280;11303;50.772;19.670;2023-05-10T19:06:10;99163.44;;;11.84
22269;BMP280;11303;50.772;19.670;2023-05-10T19:08:11;99167.41;;;11.78
22269;BMP280;11303;50.772;19.670;2023-05-10T19:10:13;99165.56;;;11.79
22269;BMP280;11303;50.772;19.670;2023-05-10T19:12:14;99168.75;;;11.72
22269;BMP280;11303;50.772;19.670;2023-05-10T19:14:16;99161.84;;;11.64
22269;BMP280;11303;50.772;19.670;2023-05-10T19:16:18;99160.78;;;11.65
22269;BMP280;11303;50.772;19.670;2023-05-10T19:18:19;99163.72;;;11.63
22269;BMP280;11303;50.772;19.670;2023-05-10T19:20:21;99169.59;;;11.60
22269;BMP280;11303;50.772;19.670;2023-05-10T19:22:23;99166.88;;;11.57
22269;BMP280;11303;50.772;19.670;2023-05-10T19:24:45;99160.81;;;11.53
22269;BMP280;11303;50.772;19.670;2023-05-10T19:26:47;99163.50;;;11.40
22269;BMP280;11303;50.772;19.670;2023-05-10T19:28:50;99173.72;;;11.33
22269;BMP280;11303;50.772;19.670;2023-05-10T19:30:52;99159.34;;;11.23
22269;BMP280;11303;50.772;19.670;2023-05-10T19:32:54;99163.91;;;11.14
22269;BMP280;11303;50.772;19.670;2023-05-10T19:34:56;99162.97;;;11.06
22269;BMP280;11303;50.772;19.670;2023-05-10T19:36:57;99163.97;;;11.02
22269;BMP280;11303;50.772;19.670;2023-05-10T19:38:59;99164.28;;;11.00
22269;BMP280;11303;50.772;19.670;2023-05-10T19:41:00;99171.78;;;11.02
22269;BMP280;11303;50.772;19.670;2023-05-10T19:43:02;99166.91;;;11.00
22269;BMP280;11303;50.772;19.670;2023-05-10T19:45:04;99170.69;;;11.03
22269;BMP280;11303;50.772;19.670;2023-05-10T19:47:06;99165.38;;;10.99
22269;BMP280;11303;50.772;19.670;2023-05-10T19:49:09;99174.59;;;10.97
22269;BMP280;11303;50.772;19.670;2023-05-10T19:51:11;99176.34;;;10.93
22269;BMP280;11303;50.772;19.670;2023-05-10T19:53:14;99170.50;;;10.83
22269;BMP280;11303;50.772;19.670;2023-05-10T19:55:25;99178.53;;;10.78
22269;BMP280;11303;50.772;19.670;2023-05-10T19:57:27;99178.44;;;10.75
22269;BMP280;11303;50.772;19.670;2023-05-10T19:59:29;99176.72;;;10.66
22269;BMP280;11303;50.772;19.670;2023-05-10T20:01:30;99182.44;;;10.60
22269;BMP280;11303;50.772;19.670;2023-05-10T20:03:34;99177.31;;;10.47
22269;BMP280;11303;50.772;19.670;2023-05-10T20:05:36;99174.38;;;10.37
22269;BMP280;11303;50.772;19.670;2023-05-10T20:07:37;99176.84;;;10.33
22269;BMP280;11303;50.772;19.670;2023-05-10T20:09:41;99179.75;;;10.32
22269;BMP280;11303;50.772;19.670;2023-05-10T20:11:42;99175.22;;;10.28
22269;BMP280;11303;50.772;19.670;2023-05-10T20:13:44;99173.56;;;10.24
22269;BMP280;11303;50.772;19.670;2023-05-10T20:15:46;99179.22;;;10.26
22269;BMP280;11303;50.772;19.670;2023-05-10T20:17:49;99178.91;;;10.27
22269;BMP280;11303;50.772;19.670;2023-05-10T20:19:54;99176.84;;;10.21
22269;BMP280;11303;50.772;19.670;2023-05-10T20:21:55;99178.78;;;10.12
22269;BMP280;11303;50.772;19.670;2023-05-10T20:23:59;99178.34;;;10.09
22269;BMP280;11303;50.772;19.670;2023-05-10T20:26:00;99181.16;;;10.04
22269;BMP280;11303;50.772;19.670;2023-05-10T20:28:02;99180.72;;;10.02
22269;BMP280;11303;50.772;19.670;2023-05-10T20:30:04;99190.56;;;9.97
22269;BMP280;11303;50.772;19.670;2023-05-10T20:32:06;99173.19;;;9.88
22269;BMP280;11303;50.772;19.670;2023-05-10T20:34:08;99178.63;;;9.83
22269;BMP280;11303;50.772;19.670;2023-05-10T20:36:09;99172.13;;;9.77
22269;BMP280;11303;50.772;19.670;2023-05-10T20:38:11;99185.50;;;9.67
22269;BMP280;11303;50.772;19.670;2023-05-10T20:40:12;99181.78;;;9.56
22269;BMP280;11303;50.772;19.670;2023-05-10T20:42:14;99184.31;;;9.43
22269;BMP280;11303;50.772;19.670;2023-05-10T20:44:16;99183.94;;;9.32
22269;BMP280;11303;50.772;19.670;2023-05-10T20:46:17;99186.13;;;9.30
22269;BMP280;11303;50.772;19.670;2023-05-10T20:48:19;99183.25;;;9.23
22269;BMP280;11303;50.772;19.670;2023-05-10T20:50:21;99177.66;;;9.21
22269;BMP280;11303;50.772;19.670;2023-05-10T20:52:22;99179.03;;;9.19
22269;BMP280;11303;50.772;19.670;2023-05-10T20:54:24;99180.88;;;9.18
22269;BMP280;11303;50.772;19.670;2023-05-10T20:56:26;99176.75;;;9.17
22269;BMP280;11303;50.772;19.670;2023-05-10T20:58:28;99189.66;;;9.26
22269;BMP280;11303;50.772;19.670;2023-05-10T21:00:29;99181.75;;;9.22
22269;BMP280;11303;50.772;19.670;2023-05-10T21:02:31;99177.06;;;9.16
22269;BMP280;11303;50.772;19.670;2023-05-10T21:04:32;99179.81;;;9.19
22269;BMP280;11303;50.772;19.670;2023-05-10T21:06:34;99176.75;;;9.17
22269;BMP280;11303;50.772;19.670;2023-05-10T21:08:36;99172.03;;;9.19
22269;BMP280;11303;50.772;19.670;2023-05-10T21:10:37;99186.81;;;9.19
22269;BMP280;11303;50.772;19.670;2023-05-10T21:12:39;99176.13;;;9.20
22269;BMP280;11303;50.772;19.670;2023-05-10T21:14:40;99186.06;;;9.18
22269;BMP280;11303;50.772;19.670;2023-05-10T21:16:43;99184.09;;;9.15
22269;BMP280;11303;50.772;19.670;2023-05-10T21:18:45;99181.38;;;9.11
22269;BMP280;11303;50.772;19.670;2023-05-10T21:20:46;99173.16;;;9.09
22269;BMP280;11303;50.772;19.670;2023-05-10T21:22:48;99171.94;;;9.07
22269;BMP280;11303;50.772;19.670;2023-05-10T21:24:49;99172.41;;;9.09
22269;BMP280;11303;50.772;19.670;2023-05-10T21:26:51;99179.91;;;9.02
22269;BMP280;11303;50.772;19.670;2023-05-10T21:28:53;99172.00;;;8.98
22269;BMP280;11303;50.772;19.670;2023-05-10T21:30:55;99178.13;;;8.93
22269;BMP280;11303;50.772;19.670;2023-05-10T21:32:57;99172.81;;;8.90
22269;BMP280;11303;50.772;19.670;2023-05-10T21:35:00;99176.34;;;8.85
22269;BMP280;11303;50.772;19.670;2023-05-10T21:37:02;99178.22;;;8.76
22269;BMP280;11303;50.772;19.670;2023-05-10T21:39:03;99175.50;;;8.72
22269;BMP280;11303;50.772;19.670;2023-05-10T21:41:06;99177.53;;;8.67
22269;BMP280;11303;50.772;19.670;2023-05-10T21:43:08;99177.25;;;8.60
22269;BMP280;11303;50.772;19.670;2023-05-10T21:45:10;99170.72;;;8.53
22269;BMP280;11303;50.772;19.670;2023-05-10T21:47:11;99175.47;;;8.51
22269;BMP280;11303;50.772;19.670;2023-05-10T21:49:13;99177.75;;;8.44
22269;BMP280;11303;50.772;19.670;2023-05-10T21:51:14;99173.09;;;8.38
22269;BMP280;11303;50.772;19.670;2023-05-10T21:53:16;99174.63;;;8.30
22269;BMP280;11303;50.772;19.670;2023-05-10T21:55:18;99174.78;;;8.25
22269;BMP280;11303;50.772;19.670;2023-05-10T21:57:19;99168.88;;;8.15
22269;BMP280;11303;50.772;19.670;2023-05-10T21:59:21;99187.16;;;8.10
22269;BMP280;11303;50.772;19.670;2023-05-10T22:01:23;99184.16;;;8.08
22269;BMP280;11303;50.772;19.670;2023-05-10T22:03:25;99177.75;;;8.06
22269;BMP280;11303;50.772;19.670;2023-05-10T22:05:27;99182.63;;;8.07
22269;BMP280;11303;50.772;19.670;2023-05-10T22:07:32;99185.94;;;8.08
22269;BMP280;11303;50.772;19.670;2023-05-10T22:09:34;99183.22;;;8.04
22269;BMP280;11303;50.772;19.670;2023-05-10T22:11:35;99180.50;;;8.01
22269;BMP280;11303;50.772;19.670;2023-05-10T22:13:37;99180.34;;;7.97
22269;BMP280;11303;50.772;19.670;2023-05-10T22:15:38;99181.88;;;7.98
22269;BMP280;11303;50.772;19.670;2023-05-10T22:17:40;99188.72;;;7.94
22269;BMP280;11303;50.772;19.670;2023-05-10T22:19:42;99187.50;;;7.91
22269;BMP280;11303;50.772;19.670;2023-05-10T22:21:43;99182.03;;;7.93
22269;BMP280;11303;50.772;19.670;2023-05-10T22:23:45;99177.47;;;7.90
22269;BMP280;11303;50.772;19.670;2023-05-10T22:25:46;99187.06;;;7.89
22269;BMP280;11303;50.772;19.670;2023-05-10T22:27:48;99191.03;;;7.87
22269;BMP280;11303;50.772;19.670;2023-05-10T22:29:50;99182.94;;;7.88
22269;BMP280;11303;50.772;19.670;2023-05-10T22:31:52;99187.22;;;7.84
22269;BMP280;11303;50.772;19.670;2023-05-10T22:33:53;99196.81;;;7.84
22269;BMP280;11303;50.772;19.670;2023-05-10T22:35:55;99187.06;;;7.81
22269;BMP280;11303;50.772;19.670;2023-05-10T22:37:56;99186.63;;;7.70
22269;BMP280;11303;50.772;19.670;2023-05-10T22:39:58;99185.28;;;7.64
22269;BMP280;11303;50.772;19.670;2023-05-10T22:41:59;99186.03;;;7.55
22269;BMP280;11303;50.772;19.670;2023-05-10T22:44:01;99186.94;;;7.51
22269;BMP280;11303;50.772;19.670;2023-05-10T22:46:04;99182.97;;;7.45
22269;BMP280;11303;50.772;19.670;2023-05-10T22:48:07;99183.44;;;7.38
22269;BMP280;11303;50.772;19.670;2023-05-10T22:50:10;99184.91;;;7.30
22269;BMP280;11303;50.772;19.670;2023-05-10T22:52:12;99187.22;;;7.23
22269;BMP280;11303;50.772;19.670;2023-05-10T22:54:13;99196.63;;;7.19
22269;BMP280;11303;50.772;19.670;2023-05-10T22:56:15;99192.22;;;7.11
22269;BMP280;11303;50.772;19.670;2023-05-10T22:58:17;99189.63;;;7.11
22269;BMP280;11303;50.772;19.670;2023-05-10T23:00:18;99192.09;;;7.16
22269;BMP280;11303;50.772;19.670;2023-05-10T23:02:20;99190.41;;;7.20
22269;BMP280;11303;50.772;19.670;2023-05-10T23:04:22;99196.50;;;7.24
22269;BMP280;11303;50.772;19.670;2023-05-10T23:06:24;99183.72;;;7.36
22269;BMP280;11303;50.772;19.670;2023-05-10T23:08:25;99195.00;;;7.40
22269;BMP280;11303;50.772;19.670;2023-05-10T23:10:27;99193.94;;;7.42
22269;BMP280;11303;50.772;19.670;2023-05-10T23:12:28;99193.00;;;7.37
22269;BMP280;11303;50.772;19.670;2023-05-10T23:14:31;99195.44;;;7.34
22269;BMP280;11303;50.772;19.670;2023-05-10T23:16:33;99186.75;;;7.30
22269;BMP280;11303;50.772;19.670;2023-05-10T23:18:35;99193.16;;;7.24
22269;BMP280;11303;50.772;19.670;2023-05-10T23:20:36;99192.84;;;7.25
22269;BMP280;11303;50.772;19.670;2023-05-10T23:22:38;99198.03;;;7.25
22269;BMP280;11303;50.772;19.670;2023-05-10T23:24:40;99195.56;;;7.20
22269;BMP280;11303;50.772;19.670;2023-05-10T23:26:41;99188.25;;;7.13
22269;BMP280;11303;50.772;19.670;2023-05-10T23:28:45;99194.03;;;7.10
22269;BMP280;11303;50.772;19.670;2023-05-10T23:30:53;99196.75;;;7.05
22269;BMP280;11303;50.772;19.670;2023-05-10T23:32:55;99189.63;;;7.02
22269;BMP280;11303;50.772;19.670;2023-05-10T23:34:57;99184.16;;;7.04
22269;BMP280;11303;50.772;19.670;2023-05-10T23:36:59;99189.75;;;7.06
22269;BMP280;11303;50.772;19.670;2023-05-10T23:39:00;99193.44;;;7.05
22269;BMP280;11303;50.772;19.670;2023-05-10T23:41:02;99189.16;;;7.00
22269;BMP280;11303;50.772;19.670;2023-05-10T23:43:04;99198.25;;;6.97
22269;BMP280;11303;50.772;19.670;2023-05-10T23:45:06;99196.56;;;6.93
22269;BMP280;11303;50.772;19.670;2023-05-10T23:47:07;99195.50;;;6.85
22269;BMP280;11303;50.772;19.670;2023-05-10T23:49:10;99194.25;;;6.82